sensor_id;sensor_type;location;lat;lon;timestamp;temperature;humidity
29777;DHT22;16677;52.224;7.484;2022-08-25T00:01:58;23.90;34.90
29777;DHT22;16677;52.224;7.484;2022-08-25T00:04:27;23.80;35.00
29777;DHT22;16677;52.224;7.484;2022-08-25T00:06:55;23.80;34.40
29777;DHT22;16677;52.224;7.484;2022-08-25T00:09:29;23.70;36.00
29777;DHT22;16677;52.224;7.484;2022-08-25T00:11:57;23.70;36.50
29777;DHT22;16677;52.224;7.484;2022-08-25T00:14:31;23.60;34.80
29777;DHT22;16677;52.224;7.484;2022-08-25T00:16:59;23.60;36.40
29777;DHT22;16677;52.224;7.484;2022-08-25T00:19:31;23.60;37.30
29777;DHT22;16677;52.224;7.484;2022-08-25T00:21:59;23.50;36.50
29777;DHT22;16677;52.224;7.484;2022-08-25T00:24:27;23.50;36.10
29777;DHT22;16677;52.224;7.484;2022-08-25T00:26:56;23.50;36.30
29777;DHT22;16677;52.224;7.484;2022-08-25T00:29:27;23.50;36.70
29777;DHT22;16677;52.224;7.484;2022-08-25T00:31:55;23.50;37.10
29777;DHT22;16677;52.224;7.484;2022-08-25T00:34:35;23.50;37.90
29777;DHT22;16677;52.224;7.484;2022-08-25T00:37:05;23.40;38.00
29777;DHT22;16677;52.224;7.484;2022-08-25T00:39:35;23.40;37.70
29777;DHT22;16677;52.224;7.484;2022-08-25T00:42:03;23.40;39.30
29777;DHT22;16677;52.224;7.484;2022-08-25T00:44:38;23.30;38.40
29777;DHT22;16677;52.224;7.484;2022-08-25T00:47:05;23.30;38.20
29777;DHT22;16677;52.224;7.484;2022-08-25T00:49:40;23.30;36.50
29777;DHT22;16677;52.224;7.484;2022-08-25T00:52:15;23.30;39.40
29777;DHT22;16677;52.224;7.484;2022-08-25T00:54:52;23.30;39.90
29777;DHT22;16677;52.224;7.484;2022-08-25T00:57:25;23.30;37.80
29777;DHT22;16677;52.224;7.484;2022-08-25T01:00:12;23.20;38.80
29777;DHT22;16677;52.224;7.484;2022-08-25T01:02:40;23.20;38.80
29777;DHT22;16677;52.224;7.484;2022-08-25T01:05:08;23.20;38.20
29777;DHT22;16677;52.224;7.484;2022-08-25T01:07:35;23.20;38.80
29777;DHT22;16677;52.224;7.484;2022-08-25T01:10:05;23.20;39.30
29777;DHT22;16677;52.224;7.484;2022-08-25T01:12:34;23.10;39.50
29777;DHT22;16677;52.224;7.484;2022-08-25T01:15:04;23.10;40.50
29777;DHT22;16677;52.224;7.484;2022-08-25T01:17:46;23.20;40.80
29777;DHT22;16677;52.224;7.484;2022-08-25T01:20:14;23.10;40.30
29777;DHT22;16677;52.224;7.484;2022-08-25T01:22:42;23.00;41.00
29777;DHT22;16677;52.224;7.484;2022-08-25T01:25:44;23.20;39.70
29777;DHT22;16677;52.224;7.484;2022-08-25T01:35:30;23.00;42.00
29777;DHT22;16677;52.224;7.484;2022-08-25T01:38:00;22.90;41.80
29777;DHT22;16677;52.224;7.484;2022-08-25T01:40:28;23.00;42.80
29777;DHT22;16677;52.224;7.484;2022-08-25T01:45:56;22.90;42.70
29777;DHT22;16677;52.224;7.484;2022-08-25T01:48:23;22.90;42.50
29777;DHT22;16677;52.224;7.484;2022-08-25T01:51:22;22.90;43.30
29777;DHT22;16677;52.224;7.484;2022-08-25T01:53:55;22.90;43.10
29777;DHT22;16677;52.224;7.484;2022-08-25T01:56:25;22.90;43.00
29777;DHT22;16677;52.224;7.484;2022-08-25T01:59:32;23.00;43.70
29777;DHT22;16677;52.224;7.484;2022-08-25T02:01:59;22.80;43.70
29777;DHT22;16677;52.224;7.484;2022-08-25T02:04:30;22.70;42.40
29777;DHT22;16677;52.224;7.484;2022-08-25T02:07:03;22.60;43.70
29777;DHT22;16677;52.224;7.484;2022-08-25T02:09:31;22.60;44.00
29777;DHT22;16677;52.224;7.484;2022-08-25T02:11:59;22.60;46.30
29777;DHT22;16677;52.224;7.484;2022-08-25T02:14:26;22.60;44.30
29777;DHT22;16677;52.224;7.484;2022-08-25T02:16:55;22.60;44.20
29777;DHT22;16677;52.224;7.484;2022-08-25T02:19:23;22.60;45.20
29777;DHT22;16677;52.224;7.484;2022-08-25T02:21:50;22.60;46.90
29777;DHT22;16677;52.224;7.484;2022-08-25T02:24:18;22.60;45.30
29777;DHT22;16677;52.224;7.484;2022-08-25T02:26:45;22.50;46.10
29777;DHT22;16677;52.224;7.484;2022-08-25T02:29:12;22.50;45.90
29777;DHT22;16677;52.224;7.484;2022-08-25T02:31:39;22.40;46.60
29777;DHT22;16677;52.224;7.484;2022-08-25T02:34:07;22.50;47.60
29777;DHT22;16677;52.224;7.484;2022-08-25T02:36:35;22.50;49.60
29777;DHT22;16677;52.224;7.484;2022-08-25T02:39:08;22.50;48.70
29777;DHT22;16677;52.224;7.484;2022-08-25T02:41:35;22.40;49.70
29777;DHT22;16677;52.224;7.484;2022-08-25T02:44:04;22.40;48.70
29777;DHT22;16677;52.224;7.484;2022-08-25T02:46:32;22.30;51.40
29777;DHT22;16677;52.224;7.484;2022-08-25T02:48:59;22.10;50.80
29777;DHT22;16677;52.224;7.484;2022-08-25T02:51:27;22.10;52.00
29777;DHT22;16677;52.224;7.484;2022-08-25T02:53:57;21.90;53.60
29777;DHT22;16677;52.224;7.484;2022-08-25T02:56:25;21.90;56.30
29777;DHT22;16677;52.224;7.484;2022-08-25T02:58:52;21.80;56.20
29777;DHT22;16677;52.224;7.484;2022-08-25T03:01:20;21.70;57.10
29777;DHT22;16677;52.224;7.484;2022-08-25T03:03:54;21.70;56.50
29777;DHT22;16677;52.224;7.484;2022-08-25T03:06:22;21.60;60.60
29777;DHT22;16677;52.224;7.484;2022-08-25T03:08:51;21.50;62.40
29777;DHT22;16677;52.224;7.484;2022-08-25T03:11:20;21.50;65.40
29777;DHT22;16677;52.224;7.484;2022-08-25T03:13:47;21.30;66.30
29777;DHT22;16677;52.224;7.484;2022-08-25T03:16:17;21.20;70.20
29777;DHT22;16677;52.224;7.484;2022-08-25T03:18:46;21.00;75.50
29777;DHT22;16677;52.224;7.484;2022-08-25T03:21:14;21.00;78.30
29777;DHT22;16677;52.224;7.484;2022-08-25T03:23:43;21.00;81.90
29777;DHT22;16677;52.224;7.484;2022-08-25T03:26:11;20.90;83.50
29777;DHT22;16677;52.224;7.484;2022-08-25T03:28:57;20.90;85.40
29777;DHT22;16677;52.224;7.484;2022-08-25T03:31:24;20.80;87.30
29777;DHT22;16677;52.224;7.484;2022-08-25T03:33:54;20.80;88.10
29777;DHT22;16677;52.224;7.484;2022-08-25T03:36:21;20.80;90.20
29777;DHT22;16677;52.224;7.484;2022-08-25T03:38:49;20.70;91.70
29777;DHT22;16677;52.224;7.484;2022-08-25T03:41:24;20.70;91.90
29777;DHT22;16677;52.224;7.484;2022-08-25T03:43:55;20.70;93.70
29777;DHT22;16677;52.224;7.484;2022-08-25T03:46:27;20.60;95.10
29777;DHT22;16677;52.224;7.484;2022-08-25T03:48:55;20.50;96.70
29777;DHT22;16677;52.224;7.484;2022-08-25T03:51:29;20.30;98.60
29777;DHT22;16677;52.224;7.484;2022-08-25T03:53:57;20.20;99.90
29777;DHT22;16677;52.224;7.484;2022-08-25T03:56:25;20.10;99.90
29777;DHT22;16677;52.224;7.484;2022-08-25T03:58:54;20.10;99.90
29777;DHT22;16677;52.224;7.484;2022-08-25T04:01:21;20.10;99.90
29777;DHT22;16677;52.224;7.484;2022-08-25T04:03:49;20.00;99.90
29777;DHT22;16677;52.224;7.484;2022-08-25T04:06:17;19.90;99.90
29777;DHT22;16677;52.224;7.484;2022-08-25T04:08:45;19.80;99.90
29777;DHT22;16677;52.224;7.484;2022-08-25T04:11:17;19.70;99.90
29777;DHT22;16677;52.224;7.484;2022-08-25T04:13:45;19.70;99.90
29777;DHT22;16677;52.224;7.484;2022-08-25T04:16:18;19.60;99.90
29777;DHT22;16677;52.224;7.484;2022-08-25T04:18:47;19.50;99.90
29777;DHT22;16677;52.224;7.484;2022-08-25T04:21:16;19.50;99.90
29777;DHT22;16677;52.224;7.484;2022-08-25T04:23:44;19.50;99.90
29777;DHT22;16677;52.224;7.484;2022-08-25T04:26:19;19.40;99.90
29777;DHT22;16677;52.224;7.484;2022-08-25T04:28:47;19.50;99.90
29777;DHT22;16677;52.224;7.484;2022-08-25T04:31:17;19.50;99.90
29777;DHT22;16677;52.224;7.484;2022-08-25T04:33:44;19.50;99.90
29777;DHT22;16677;52.224;7.484;2022-08-25T04:36:15;19.50;99.90
29777;DHT22;16677;52.224;7.484;2022-08-25T04:38:44;19.60;99.90
29777;DHT22;16677;52.224;7.484;2022-08-25T04:41:13;19.50;99.90
29777;DHT22;16677;52.224;7.484;2022-08-25T04:43:42;19.50;99.90
29777;DHT22;16677;52.224;7.484;2022-08-25T04:46:19;19.40;99.90
29777;DHT22;16677;52.224;7.484;2022-08-25T04:48:48;19.40;99.90
29777;DHT22;16677;52.224;7.484;2022-08-25T04:51:22;19.50;99.90
29777;DHT22;16677;52.224;7.484;2022-08-25T04:53:51;19.50;99.90
29777;DHT22;16677;52.224;7.484;2022-08-25T04:56:21;19.50;99.90
29777;DHT22;16677;52.224;7.484;2022-08-25T04:58:54;19.50;99.90
29777;DHT22;16677;52.224;7.484;2022-08-25T05:01:24;19.50;99.90
29777;DHT22;16677;52.224;7.484;2022-08-25T05:03:55;19.50;99.90
29777;DHT22;16677;52.224;7.484;2022-08-25T05:06:23;19.50;99.90
29777;DHT22;16677;52.224;7.484;2022-08-25T05:08:51;19.50;99.90
29777;DHT22;16677;52.224;7.484;2022-08-25T05:11:18;19.50;99.90
29777;DHT22;16677;52.224;7.484;2022-08-25T05:13:51;19.50;99.90
29777;DHT22;16677;52.224;7.484;2022-08-25T05:16:20;19.50;99.90
29777;DHT22;16677;52.224;7.484;2022-08-25T05:18:48;19.50;99.90
29777;DHT22;16677;52.224;7.484;2022-08-25T05:21:21;19.70;99.90
29777;DHT22;16677;52.224;7.484;2022-08-25T05:23:49;19.70;99.90
29777;DHT22;16677;52.224;7.484;2022-08-25T05:26:19;19.80;99.90
29777;DHT22;16677;52.224;7.484;2022-08-25T05:28:49;19.90;99.90
29777;DHT22;16677;52.224;7.484;2022-08-25T05:31:18;19.90;99.90
29777;DHT22;16677;52.224;7.484;2022-08-25T05:33:46;20.00;99.90
29777;DHT22;16677;52.224;7.484;2022-08-25T05:36:14;20.10;99.90
29777;DHT22;16677;52.224;7.484;2022-08-25T05:38:41;20.20;99.90
29777;DHT22;16677;52.224;7.484;2022-08-25T05:41:12;20.30;99.90
29777;DHT22;16677;52.224;7.484;2022-08-25T05:43:42;20.50;99.90
29777;DHT22;16677;52.224;7.484;2022-08-25T05:46:10;20.80;99.90
29777;DHT22;16677;52.224;7.484;2022-08-25T05:48:38;21.20;99.90
29777;DHT22;16677;52.224;7.484;2022-08-25T05:51:10;21.80;99.90
29777;DHT22;16677;52.224;7.484;2022-08-25T05:53:40;22.40;99.90
29777;DHT22;16677;52.224;7.484;2022-08-25T05:56:11;22.90;99.40
29777;DHT22;16677;52.224;7.484;2022-08-25T05:58:40;23.20;96.40
29777;DHT22;16677;52.224;7.484;2022-08-25T06:01:08;23.60;93.60
29777;DHT22;16677;52.224;7.484;2022-08-25T06:03:54;23.90;91.30
29777;DHT22;16677;52.224;7.484;2022-08-25T06:06:22;24.10;90.90
29777;DHT22;16677;52.224;7.484;2022-08-25T06:08:50;24.30;88.70
29777;DHT22;16677;52.224;7.484;2022-08-25T06:11:17;24.50;86.60
29777;DHT22;16677;52.224;7.484;2022-08-25T06:13:45;24.60;85.40
29777;DHT22;16677;52.224;7.484;2022-08-25T06:16:12;24.50;82.50
29777;DHT22;16677;52.224;7.484;2022-08-25T06:18:39;24.70;84.60
29777;DHT22;16677;52.224;7.484;2022-08-25T06:21:09;25.10;80.90
29777;DHT22;16677;52.224;7.484;2022-08-25T06:23:36;25.70;81.80
29777;DHT22;16677;52.224;7.484;2022-08-25T06:26:04;25.60;77.60
29777;DHT22;16677;52.224;7.484;2022-08-25T06:28:32;25.50;78.60
29777;DHT22;16677;52.224;7.484;2022-08-25T06:31:00;25.90;76.10
29777;DHT22;16677;52.224;7.484;2022-08-25T06:33:27;26.00;77.10
29777;DHT22;16677;52.224;7.484;2022-08-25T06:35:55;26.20;75.10
29777;DHT22;16677;52.224;7.484;2022-08-25T06:38:23;26.30;76.10
29777;DHT22;16677;52.224;7.484;2022-08-25T06:40:51;26.60;73.40
29777;DHT22;16677;52.224;7.484;2022-08-25T06:43:19;26.80;70.70
29777;DHT22;16677;52.224;7.484;2022-08-25T06:45:46;26.90;70.80
29777;DHT22;16677;52.224;7.484;2022-08-25T06:48:14;27.20;69.10
29777;DHT22;16677;52.224;7.484;2022-08-25T06:50:42;27.30;68.00
29777;DHT22;16677;52.224;7.484;2022-08-25T06:53:09;27.30;65.50
29777;DHT22;16677;52.224;7.484;2022-08-25T06:55:37;27.20;67.00
29777;DHT22;16677;52.224;7.484;2022-08-25T06:58:04;27.30;64.70
29777;DHT22;16677;52.224;7.484;2022-08-25T07:00:35;27.50;65.50
29777;DHT22;16677;52.224;7.484;2022-08-25T07:03:03;27.50;65.10
29777;DHT22;16677;52.224;7.484;2022-08-25T07:05:32;27.50;63.30
29777;DHT22;16677;52.224;7.484;2022-08-25T07:08:09;27.40;61.70
29777;DHT22;16677;52.224;7.484;2022-08-25T07:10:37;27.60;62.30
29777;DHT22;16677;52.224;7.484;2022-08-25T07:13:04;27.50;62.10
29777;DHT22;16677;52.224;7.484;2022-08-25T07:15:36;27.60;62.20
29777;DHT22;16677;52.224;7.484;2022-08-25T07:18:03;27.80;62.90
29777;DHT22;16677;52.224;7.484;2022-08-25T07:20:36;27.80;62.90
29777;DHT22;16677;52.224;7.484;2022-08-25T07:23:05;27.80;64.30
29777;DHT22;16677;52.224;7.484;2022-08-25T07:25:34;27.90;63.40
29777;DHT22;16677;52.224;7.484;2022-08-25T07:28:13;27.50;63.20
29777;DHT22;16677;52.224;7.484;2022-08-25T07:30:40;27.80;62.80
29777;DHT22;16677;52.224;7.484;2022-08-25T07:33:08;28.10;63.10
29777;DHT22;16677;52.224;7.484;2022-08-25T07:35:36;28.30;61.80
29777;DHT22;16677;52.224;7.484;2022-08-25T07:38:07;28.30;61.10
29777;DHT22;16677;52.224;7.484;2022-08-25T07:40:39;27.90;61.60
29777;DHT22;16677;52.224;7.484;2022-08-25T07:43:08;28.20;62.00
29777;DHT22;16677;52.224;7.484;2022-08-25T07:45:38;28.00;63.10
29777;DHT22;16677;52.224;7.484;2022-08-25T07:48:15;28.20;62.50
29777;DHT22;16677;52.224;7.484;2022-08-25T07:50:45;28.40;62.60
29777;DHT22;16677;52.224;7.484;2022-08-25T07:53:15;28.50;62.50
29777;DHT22;16677;52.224;7.484;2022-08-25T07:55:42;28.50;61.20
29777;DHT22;16677;52.224;7.484;2022-08-25T07:58:12;28.50;61.50
29777;DHT22;16677;52.224;7.484;2022-08-25T08:00:39;28.70;58.20
29777;DHT22;16677;52.224;7.484;2022-08-25T08:03:08;28.80;58.90
29777;DHT22;16677;52.224;7.484;2022-08-25T08:05:56;28.70;57.30
29777;DHT22;16677;52.224;7.484;2022-08-25T08:08:23;28.70;58.60
29777;DHT22;16677;52.224;7.484;2022-08-25T08:10:50;28.80;58.20
29777;DHT22;16677;52.224;7.484;2022-08-25T08:13:36;28.80;58.60
29777;DHT22;16677;52.224;7.484;2022-08-25T08:16:11;28.50;57.50
29777;DHT22;16677;52.224;7.484;2022-08-25T08:18:39;28.60;59.40
29777;DHT22;16677;52.224;7.484;2022-08-25T08:21:12;28.80;58.60
29777;DHT22;16677;52.224;7.484;2022-08-25T08:23:46;28.90;58.60
29777;DHT22;16677;52.224;7.484;2022-08-25T08:26:15;29.30;57.60
29777;DHT22;16677;52.224;7.484;2022-08-25T08:28:43;29.40;56.00
29777;DHT22;16677;52.224;7.484;2022-08-25T08:31:22;29.20;57.40
29777;DHT22;16677;52.224;7.484;2022-08-25T08:33:53;29.40;57.30
29777;DHT22;16677;52.224;7.484;2022-08-25T08:36:22;29.30;55.70
29777;DHT22;16677;52.224;7.484;2022-08-25T08:38:51;29.00;55.40
29777;DHT22;16677;52.224;7.484;2022-08-25T08:44:40;28.70;57.30
29777;DHT22;16677;52.224;7.484;2022-08-25T08:53:10;29.70;55.10
29777;DHT22;16677;52.224;7.484;2022-08-25T08:55:53;29.60;54.20
29777;DHT22;16677;52.224;7.484;2022-08-25T08:58:43;29.50;53.10
29777;DHT22;16677;52.224;7.484;2022-08-25T09:01:16;29.50;52.70
29777;DHT22;16677;52.224;7.484;2022-08-25T09:04:12;29.60;52.10
29777;DHT22;16677;52.224;7.484;2022-08-25T09:06:45;29.60;51.70
29777;DHT22;16677;52.224;7.484;2022-08-25T09:09:21;29.50;50.80
29777;DHT22;16677;52.224;7.484;2022-08-25T09:23:00;29.60;48.80
29777;DHT22;16677;52.224;7.484;2022-08-25T09:31:25;29.60;50.50
29777;DHT22;16677;52.224;7.484;2022-08-25T09:33:56;29.60;48.50
29777;DHT22;16677;52.224;7.484;2022-08-25T09:36:25;29.30;47.80
29777;DHT22;16677;52.224;7.484;2022-08-25T09:38:52;29.40;47.30
29777;DHT22;16677;52.224;7.484;2022-08-25T09:41:48;29.20;47.60
29777;DHT22;16677;52.224;7.484;2022-08-25T09:44:31;29.50;48.20
29777;DHT22;16677;52.224;7.484;2022-08-25T09:49:46;29.80;47.30
29777;DHT22;16677;52.224;7.484;2022-08-25T09:55:23;29.70;46.30
29777;DHT22;16677;52.224;7.484;2022-08-25T09:57:53;29.30;47.20
29777;DHT22;16677;52.224;7.484;2022-08-25T10:05:48;29.40;48.10
29777;DHT22;16677;52.224;7.484;2022-08-25T10:11:13;29.90;45.10
29777;DHT22;16677;52.224;7.484;2022-08-25T10:13:48;30.10;45.30
29777;DHT22;16677;52.224;7.484;2022-08-25T10:16:29;30.10;44.00
29777;DHT22;16677;52.224;7.484;2022-08-25T10:19:08;30.20;42.70
29777;DHT22;16677;52.224;7.484;2022-08-25T10:21:38;30.20;42.50
29777;DHT22;16677;52.224;7.484;2022-08-25T10:24:07;30.30;42.30
29777;DHT22;16677;52.224;7.484;2022-08-25T10:32:37;29.80;41.30
29777;DHT22;16677;52.224;7.484;2022-08-25T10:34:48;29.80;41.70
29777;DHT22;16677;52.224;7.484;2022-08-25T10:43:05;29.80;41.30
29777;DHT22;16677;52.224;7.484;2022-08-25T10:45:41;29.70;40.00
29777;DHT22;16677;52.224;7.484;2022-08-25T10:57:09;30.50;37.90
29777;DHT22;16677;52.224;7.484;2022-08-25T11:05:48;30.80;38.20
29777;DHT22;16677;52.224;7.484;2022-08-25T11:14:02;30.40;37.60
29777;DHT22;16677;52.224;7.484;2022-08-25T11:17:31;30.50;37.30
29777;DHT22;16677;52.224;7.484;2022-08-25T11:19:53;30.70;37.10
29777;DHT22;16677;52.224;7.484;2022-08-25T11:22:35;30.60;37.20
29777;DHT22;16677;52.224;7.484;2022-08-25T11:25:27;30.40;37.00
29777;DHT22;16677;52.224;7.484;2022-08-25T11:31:01;30.40;36.00
29777;DHT22;16677;52.224;7.484;2022-08-25T11:33:31;30.90;36.60
29777;DHT22;16677;52.224;7.484;2022-08-25T11:36:09;30.80;35.60
29777;DHT22;16677;52.224;7.484;2022-08-25T11:44:13;30.40;34.40
29777;DHT22;16677;52.224;7.484;2022-08-25T11:50:04;30.30;36.30
29777;DHT22;16677;52.224;7.484;2022-08-25T11:55:58;30.70;33.60
29777;DHT22;16677;52.224;7.484;2022-08-25T11:58:34;31.00;33.70
29777;DHT22;16677;52.224;7.484;2022-08-25T12:01:05;31.30;32.40
29777;DHT22;16677;52.224;7.484;2022-08-25T12:06:27;31.20;31.50
29777;DHT22;16677;52.224;7.484;2022-08-25T12:11:56;31.30;30.50
29777;DHT22;16677;52.224;7.484;2022-08-25T12:35:25;32.20;28.20
29777;DHT22;16677;52.224;7.484;2022-08-25T12:38:06;31.90;26.90
29777;DHT22;16677;52.224;7.484;2022-08-25T12:41:02;32.30;28.00
29777;DHT22;16677;52.224;7.484;2022-08-25T12:54:21;32.60;24.50
29777;DHT22;16677;52.224;7.484;2022-08-25T12:57:01;32.60;25.30
29777;DHT22;16677;52.224;7.484;2022-08-25T12:59:40;32.60;25.30
29777;DHT22;16677;52.224;7.484;2022-08-25T13:08:20;32.70;23.80
29777;DHT22;16677;52.224;7.484;2022-08-25T13:11:10;32.60;23.40
29777;DHT22;16677;52.224;7.484;2022-08-25T13:13:55;32.70;22.70
29777;DHT22;16677;52.224;7.484;2022-08-25T13:16:28;32.70;22.70
29777;DHT22;16677;52.224;7.484;2022-08-25T13:18:56;32.80;22.70
29777;DHT22;16677;52.224;7.484;2022-08-25T13:21:36;32.50;21.40
29777;DHT22;16677;52.224;7.484;2022-08-25T13:24:06;31.60;22.30
29777;DHT22;16677;52.224;7.484;2022-08-25T13:26:39;31.70;22.60
29777;DHT22;16677;52.224;7.484;2022-08-25T13:29:19;31.90;23.00
29777;DHT22;16677;52.224;7.484;2022-08-25T13:31:56;32.00;23.70
29777;DHT22;16677;52.224;7.484;2022-08-25T13:34:35;32.00;21.90
29777;DHT22;16677;52.224;7.484;2022-08-25T13:37:13;32.20;21.20
29777;DHT22;16677;52.224;7.484;2022-08-25T13:40:19;32.30;22.10
29777;DHT22;16677;52.224;7.484;2022-08-25T13:42:57;32.50;21.00
29777;DHT22;16677;52.224;7.484;2022-08-25T13:45:28;32.40;20.90
29777;DHT22;16677;52.224;7.484;2022-08-25T13:47:57;32.40;21.80
29777;DHT22;16677;52.224;7.484;2022-08-25T13:52:58;32.60;19.80
29777;DHT22;16677;52.224;7.484;2022-08-25T13:55:35;32.50;20.60
29777;DHT22;16677;52.224;7.484;2022-08-25T13:58:41;32.70;21.50
29777;DHT22;16677;52.224;7.484;2022-08-25T14:01:27;32.50;19.60
29777;DHT22;16677;52.224;7.484;2022-08-25T14:07:14;32.50;20.30
29777;DHT22;16677;52.224;7.484;2022-08-25T14:10:03;32.70;20.20
29777;DHT22;16677;52.224;7.484;2022-08-25T14:12:34;32.40;18.50
29777;DHT22;16677;52.224;7.484;2022-08-25T14:20:29;32.10;17.10
29777;DHT22;16677;52.224;7.484;2022-08-25T14:23:07;32.20;18.50
29777;DHT22;16677;52.224;7.484;2022-08-25T14:25:36;32.30;18.40
29777;DHT22;16677;52.224;7.484;2022-08-25T14:28:14;32.60;17.70
29777;DHT22;16677;52.224;7.484;2022-08-25T14:30:49;32.50;19.20
29777;DHT22;16677;52.224;7.484;2022-08-25T14:33:22;32.70;17.20
29777;DHT22;16677;52.224;7.484;2022-08-25T14:35:52;32.80;17.30
29777;DHT22;16677;52.224;7.484;2022-08-25T14:38:22;32.60;16.90
29777;DHT22;16677;52.224;7.484;2022-08-25T14:40:50;32.60;16.90
29777;DHT22;16677;52.224;7.484;2022-08-25T14:43:18;32.60;16.30
29777;DHT22;16677;52.224;7.484;2022-08-25T14:45:56;32.60;16.20
29777;DHT22;16677;52.224;7.484;2022-08-25T14:48:39;32.80;16.30
29777;DHT22;16677;52.224;7.484;2022-08-25T14:51:10;32.90;16.00
29777;DHT22;16677;52.224;7.484;2022-08-25T14:53:37;32.90;15.70
29777;DHT22;16677;52.224;7.484;2022-08-25T14:56:05;32.80;15.60
29777;DHT22;16677;52.224;7.484;2022-08-25T14:58:36;32.90;14.20
29777;DHT22;16677;52.224;7.484;2022-08-25T15:01:16;33.00;15.30
29777;DHT22;16677;52.224;7.484;2022-08-25T15:03:57;33.10;15.10
29777;DHT22;16677;52.224;7.484;2022-08-25T15:06:27;33.30;15.20
29777;DHT22;16677;52.224;7.484;2022-08-25T15:08:55;33.40;13.30
29777;DHT22;16677;52.224;7.484;2022-08-25T15:11:42;33.00;13.50
29777;DHT22;16677;52.224;7.484;2022-08-25T15:14:11;33.30;14.50
29777;DHT22;16677;52.224;7.484;2022-08-25T15:16:44;33.20;14.50
29777;DHT22;16677;52.224;7.484;2022-08-25T15:19:14;32.90;14.80
29777;DHT22;16677;52.224;7.484;2022-08-25T15:21:43;33.10;14.60
29777;DHT22;16677;52.224;7.484;2022-08-25T15:24:12;32.60;13.80
29777;DHT22;16677;52.224;7.484;2022-08-25T15:26:50;32.40;14.10
29777;DHT22;16677;52.224;7.484;2022-08-25T15:29:18;32.10;14.00
29777;DHT22;16677;52.224;7.484;2022-08-25T15:31:45;32.00;12.80
29777;DHT22;16677;52.224;7.484;2022-08-25T15:34:26;32.10;14.40
29777;DHT22;16677;52.224;7.484;2022-08-25T15:36:54;32.50;14.00
29777;DHT22;16677;52.224;7.484;2022-08-25T15:39:22;32.40;13.30
29777;DHT22;16677;52.224;7.484;2022-08-25T15:41:49;32.70;13.70
29777;DHT22;16677;52.224;7.484;2022-08-25T15:44:20;32.80;13.50
29777;DHT22;16677;52.224;7.484;2022-08-25T15:46:54;32.70;12.80
29777;DHT22;16677;52.224;7.484;2022-08-25T15:49:22;32.70;12.40
29777;DHT22;16677;52.224;7.484;2022-08-25T15:51:51;33.00;12.70
29777;DHT22;16677;52.224;7.484;2022-08-25T15:59:43;34.10;11.50
29777;DHT22;16677;52.224;7.484;2022-08-25T16:02:11;34.50;9.00
29777;DHT22;16677;52.224;7.484;2022-08-25T16:04:41;34.60;7.20
29777;DHT22;16677;52.224;7.484;2022-08-25T16:07:08;34.40;8.50
29777;DHT22;16677;52.224;7.484;2022-08-25T16:09:39;34.40;8.00
29777;DHT22;16677;52.224;7.484;2022-08-25T16:12:07;34.70;7.80
29777;DHT22;16677;52.224;7.484;2022-08-25T16:14:34;35.00;7.60
29777;DHT22;16677;52.224;7.484;2022-08-25T16:17:01;35.10;6.60
29777;DHT22;16677;52.224;7.484;2022-08-25T16:19:29;34.20;7.30
29777;DHT22;16677;52.224;7.484;2022-08-25T16:21:57;34.20;6.70
29777;DHT22;16677;52.224;7.484;2022-08-25T16:24:25;34.00;7.90
29777;DHT22;16677;52.224;7.484;2022-08-25T16:26:52;34.20;5.90
29777;DHT22;16677;52.224;7.484;2022-08-25T16:29:22;34.50;7.60
29777;DHT22;16677;52.224;7.484;2022-08-25T16:31:49;34.40;5.90
29777;DHT22;16677;52.224;7.484;2022-08-25T16:34:25;34.80;5.80
29777;DHT22;16677;52.224;7.484;2022-08-25T16:36:56;35.20;6.00
29777;DHT22;16677;52.224;7.484;2022-08-25T16:39:24;35.30;4.90
29777;DHT22;16677;52.224;7.484;2022-08-25T16:41:51;35.50;3.80
29777;DHT22;16677;52.224;7.484;2022-08-25T16:44:20;35.50;19.50
29777;DHT22;16677;52.224;7.484;2022-08-25T16:46:49;35.70;4.20
29777;DHT22;16677;52.224;7.484;2022-08-25T16:49:20;35.50;3.50
29777;DHT22;16677;52.224;7.484;2022-08-25T16:51:50;35.40;2.80
29777;DHT22;16677;52.224;7.484;2022-08-25T16:54:23;35.50;2.20
29777;DHT22;16677;52.224;7.484;2022-08-25T16:57:10;35.60;2.40
29777;DHT22;16677;52.224;7.484;2022-08-25T16:59:37;35.80;1.00
29777;DHT22;16677;52.224;7.484;2022-08-25T17:02:04;35.50;1.00
29777;DHT22;16677;52.224;7.484;2022-08-25T17:04:32;35.70;1.00
29777;DHT22;16677;52.224;7.484;2022-08-25T17:06:59;35.70;1.00
29777;DHT22;16677;52.224;7.484;2022-08-25T17:09:27;35.60;1.00
29777;DHT22;16677;52.224;7.484;2022-08-25T17:11:55;35.20;2.00
29777;DHT22;16677;52.224;7.484;2022-08-25T17:14:23;34.80;1.10
29777;DHT22;16677;52.224;7.484;2022-08-25T17:16:50;34.80;1.00
29777;DHT22;16677;52.224;7.484;2022-08-25T17:19:21;34.90;2.00
29777;DHT22;16677;52.224;7.484;2022-08-25T17:21:50;34.90;1.00
29777;DHT22;16677;52.224;7.484;2022-08-25T17:24:17;34.80;1.00
29777;DHT22;16677;52.224;7.484;2022-08-25T17:26:46;34.60;1.00
29777;DHT22;16677;52.224;7.484;2022-08-25T17:29:17;34.70;1.00
29777;DHT22;16677;52.224;7.484;2022-08-25T17:31:44;34.70;1.00
29777;DHT22;16677;52.224;7.484;2022-08-25T17:34:14;34.50;1.00
29777;DHT22;16677;52.224;7.484;2022-08-25T17:36:46;34.20;1.00
29777;DHT22;16677;52.224;7.484;2022-08-25T17:39:14;34.30;1.00
29777;DHT22;16677;52.224;7.484;2022-08-25T17:41:44;34.20;1.00
29777;DHT22;16677;52.224;7.484;2022-08-25T17:44:12;33.90;1.00
29777;DHT22;16677;52.224;7.484;2022-08-25T17:46:41;33.40;1.00
29777;DHT22;16677;52.224;7.484;2022-08-25T17:49:14;33.50;1.00
29777;DHT22;16677;52.224;7.484;2022-08-25T17:51:41;33.50;1.00
29777;DHT22;16677;52.224;7.484;2022-08-25T17:54:08;33.50;1.00
29777;DHT22;16677;52.224;7.484;2022-08-25T17:56:36;33.30;1.00
29777;DHT22;16677;52.224;7.484;2022-08-25T17:59:04;32.90;1.00
29777;DHT22;16677;52.224;7.484;2022-08-25T18:01:33;32.80;1.00
29777;DHT22;16677;52.224;7.484;2022-08-25T18:04:06;32.40;1.20
29777;DHT22;16677;52.224;7.484;2022-08-25T18:06:44;32.30;2.70
29777;DHT22;16677;52.224;7.484;2022-08-25T18:09:11;31.90;2.70
29777;DHT22;16677;52.224;7.484;2022-08-25T18:11:38;31.80;2.10
29777;DHT22;16677;52.224;7.484;2022-08-25T18:14:06;31.50;2.40
29777;DHT22;16677;52.224;7.484;2022-08-25T18:16:37;31.20;2.70
29777;DHT22;16677;52.224;7.484;2022-08-25T18:19:05;31.00;3.60
29777;DHT22;16677;52.224;7.484;2022-08-25T18:21:35;30.60;4.00
29777;DHT22;16677;52.224;7.484;2022-08-25T18:24:02;30.20;3.90
29777;DHT22;16677;52.224;7.484;2022-08-25T18:26:29;30.00;7.60
29777;DHT22;16677;52.224;7.484;2022-08-25T18:39:38;28.80;9.20
29777;DHT22;16677;52.224;7.484;2022-08-25T18:42:24;28.40;9.70
29777;DHT22;16677;52.224;7.484;2022-08-25T18:44:54;28.20;10.50
29777;DHT22;16677;52.224;7.484;2022-08-25T18:52:39;27.60;13.40
29777;DHT22;16677;52.224;7.484;2022-08-25T18:55:10;27.50;13.70